createdAt,value
2023-01-15T00:00:57.981Z,76.04
2023-01-15T00:03:59.557Z,76.83
2023-01-15T00:07:02.218Z,75.17
2023-01-15T00:10:04.337Z,74.88
2023-01-15T00:13:07.768Z,74.51
2023-01-15T00:16:13.853Z,75.68
2023-01-15T00:19:15.560Z,75.04
2023-01-15T00:22:18.411Z,74.52
2023-01-15T00:29:01.769Z,74.64
2023-01-15T00:32:06.918Z,75.15
2023-01-15T00:35:12.943Z,75.44
2023-01-15T00:38:15.971Z,74.50
2023-01-15T00:41:18.883Z,75.50
2023-01-15T00:44:21.869Z,75.90
2023-01-15T00:47:24.802Z,75.14
2023-01-15T00:50:26.419Z,75.50
2023-01-15T00:53:29.367Z,75.11
2023-01-15T00:56:32.992Z,74.59
2023-01-15T00:59:35.285Z,74.81
2023-01-15T01:02:38.170Z,75.04
2023-01-15T01:05:39.782Z,74.96
2023-01-15T01:08:42.848Z,74.97
2023-01-15T01:11:45.943Z,74.08
2023-01-15T01:14:48.238Z,74.65
2023-01-15T01:17:51.148Z,75.25
2023-01-15T01:20:53.000Z,75.13
2023-01-15T01:23:55.872Z,75.39
2023-01-15T01:26:57.403Z,75.60
2023-01-15T01:30:00.970Z,75.30
2023-01-15T01:33:02.476Z,73.69
2023-01-15T01:36:07.774Z,74.83
2023-01-15T01:42:36.972Z,74.31
2023-01-15T01:45:39.193Z,73.11
2023-01-15T01:48:40.827Z,74.96
2023-01-15T01:51:46.445Z,74.90
2023-01-15T01:54:51.195Z,75.79
2023-01-15T01:57:56.356Z,76.17
2023-01-15T02:01:01.258Z,76.87
2023-01-15T02:04:07.084Z,75.63
2023-01-15T02:07:09.929Z,76.47
2023-01-15T02:10:15.510Z,76.61
2023-01-15T02:13:26.236Z,77.20
2023-01-15T02:16:36.388Z,78.24
2023-01-15T02:19:49.821Z,79.69
2023-01-15T02:23:26.512Z,78.83
2023-01-15T02:30:29.730Z,79.88
2023-01-15T02:33:35.284Z,80.57
2023-01-15T02:36:42.371Z,80.77
2023-01-15T02:39:47.516Z,80.90
2023-01-15T02:46:16.191Z,81.26
2023-01-15T02:49:20.863Z,82.38
2023-01-15T02:52:29.073Z,82.12
2023-01-15T02:55:34.896Z,82.51
2023-01-15T02:58:42.782Z,81.67
2023-01-15T03:01:49.576Z,82.63
2023-01-15T03:04:55.741Z,83.38
2023-01-15T03:08:00.916Z,83.53
2023-01-15T03:11:07.794Z,84.33
2023-01-15T03:14:20.085Z,84.80
2023-01-15T03:17:29.490Z,84.12
2023-01-15T03:20:34.703Z,83.77
2023-01-15T03:23:41.771Z,83.72
2023-01-15T03:26:43.664Z,84.64
2023-01-15T03:29:49.493Z,84.96
2023-01-15T03:32:51.164Z,86.26
2023-01-15T03:35:56.871Z,85.15
2023-01-15T03:39:00.472Z,84.78
2023-01-15T03:42:14.300Z,83.97
2023-01-15T03:45:24.634Z,84.54
2023-01-15T03:48:34.239Z,83.93
2023-01-15T03:51:43.718Z,79.78
2023-01-15T03:54:54.176Z,80.18
2023-01-15T03:58:00.398Z,79.16
2023-01-15T04:01:05.767Z,80.18
2023-01-15T04:04:09.418Z,79.04
2023-01-15T04:07:13.056Z,80.60
2023-01-15T04:10:14.734Z,80.45
2023-01-15T04:13:37.642Z,77.66
2023-01-15T04:16:40.047Z,76.95
2023-01-15T04:19:44.310Z,76.67
2023-01-15T04:22:45.847Z,76.03
2023-01-15T04:25:48.877Z,75.72
2023-01-15T04:28:50.472Z,74.33
2023-01-15T04:31:58.069Z,74.37
2023-01-15T04:34:59.792Z,75.06
2023-01-15T04:38:01.633Z,74.88
2023-01-15T04:41:22.207Z,76.63
2023-01-15T04:44:26.912Z,77.13
2023-01-15T04:47:32.350Z,76.58
2023-01-15T04:50:33.929Z,77.24
2023-01-15T04:53:35.930Z,76.65
2023-01-15T04:56:40.716Z,77.51
2023-01-15T04:59:42.419Z,76.96
2023-01-15T05:02:44.622Z,77.60
2023-01-15T05:05:47.369Z,77.55
2023-01-15T05:08:50.155Z,78.27
2023-01-15T05:11:51.632Z,77.55
2023-01-15T05:14:54.443Z,77.84
2023-01-15T05:17:57.042Z,77.65
2023-01-15T05:20:59.804Z,76.81
2023-01-15T05:24:07.111Z,78.62
2023-01-15T05:27:08.642Z,78.50
2023-01-15T05:30:11.518Z,77.62
2023-01-15T05:33:14.009Z,77.88
2023-01-15T05:36:18.346Z,77.18
2023-01-15T05:39:21.117Z,77.87
2023-01-15T05:42:22.800Z,76.86
2023-01-15T05:45:25.712Z,76.90
2023-01-15T05:48:28.433Z,77.37
2023-01-15T05:54:52.612Z,78.29
2023-01-15T05:57:54.442Z,77.35
2023-01-15T06:00:57.594Z,78.08
2023-01-15T06:04:00.895Z,77.44
2023-01-15T06:07:03.872Z,78.32
2023-01-15T06:10:07.989Z,77.32
2023-01-15T06:13:09.270Z,77.82
2023-01-15T06:16:12.730Z,78.48
2023-01-15T06:19:14.737Z,78.18
2023-01-15T06:22:18.691Z,77.33
2023-01-15T06:25:21.243Z,77.35
2023-01-15T06:28:22.574Z,78.04
2023-01-15T06:31:27.349Z,77.16
2023-01-15T06:34:29.549Z,76.33
2023-01-15T06:37:32.124Z,76.77
2023-01-15T06:40:33.437Z,77.58
2023-01-15T06:43:53.967Z,76.29
2023-01-15T06:47:14.640Z,76.93
2023-01-15T06:50:17.368Z,77.68
2023-01-15T06:53:18.797Z,75.53
2023-01-15T06:56:21.366Z,77.17
2023-01-15T06:59:22.904Z,76.46
2023-01-15T07:02:24.250Z,75.46
2023-01-15T07:22:37.862Z,73.78
2023-01-15T07:25:39.349Z,72.95
2023-01-15T07:28:41.474Z,72.72
2023-01-15T07:31:43.064Z,74.74
2023-01-15T07:34:45.701Z,73.73
2023-01-15T07:37:51.644Z,75.52
2023-01-15T07:41:11.527Z,75.87
2023-01-15T07:44:31.612Z,75.35
2023-01-15T07:47:52.394Z,75.08
2023-01-15T07:50:53.715Z,74.33
2023-01-15T07:53:55.942Z,74.51
2023-01-15T07:56:57.415Z,75.67
2023-01-15T07:59:59.972Z,73.20
2023-01-15T08:03:02.767Z,74.76
2023-01-15T08:06:05.532Z,74.71
2023-01-15T08:09:07.581Z,74.27
2023-01-15T08:12:30.124Z,73.58
2023-01-15T08:15:35.925Z,73.40
2023-01-15T08:18:37.252Z,73.07
2023-01-15T08:21:40.024Z,73.84
2023-01-15T08:24:43.328Z,73.99
2023-01-15T08:27:46.542Z,73.37
2023-01-15T08:30:49.087Z,73.96
2023-01-15T08:33:50.593Z,74.03
2023-01-15T08:36:59.185Z,72.65
2023-01-15T08:40:02.467Z,72.62
2023-01-15T08:43:03.776Z,73.69
2023-01-15T08:46:06.934Z,73.12
2023-01-15T08:49:09.502Z,72.04
2023-01-15T08:52:10.876Z,71.29
2023-01-15T08:55:14.111Z,72.40
2023-01-15T08:58:15.794Z,72.38
2023-01-15T09:01:18.429Z,70.93
2023-01-15T09:04:21.200Z,71.36
2023-01-15T09:07:23.771Z,71.72
2023-01-15T09:10:25.843Z,70.92
2023-01-15T09:13:28.404Z,70.47
2023-01-15T09:19:52.253Z,70.26
2023-01-15T09:22:53.574Z,68.98
2023-01-15T09:25:58.508Z,69.35
2023-01-15T09:29:00.592Z,69.79
2023-01-15T09:32:03.992Z,70.94
2023-01-15T09:35:06.184Z,70.34
2023-01-15T09:38:07.598Z,69.16
2023-01-15T09:41:32.770Z,69.07
2023-01-15T09:44:44.956Z,70.07
2023-01-15T09:48:01.497Z,68.68
2023-01-15T09:51:12.685Z,68.74
2023-01-15T09:54:27.211Z,68.77
2023-01-15T09:57:30.080Z,67.48
2023-01-15T10:00:39.040Z,67.26
2023-01-15T10:03:46.078Z,68.04
2023-01-15T10:06:54.526Z,66.94
2023-01-15T10:13:32.350Z,65.68
2023-01-15T10:16:33.674Z,65.55
2023-01-15T10:19:44.397Z,66.71
2023-01-15T10:23:02.449Z,67.22
2023-01-15T10:26:19.259Z,64.80
2023-01-15T10:29:31.664Z,64.92
2023-01-15T10:33:01.132Z,64.63
2023-01-15T10:36:08.313Z,63.54
2023-01-15T10:39:16.639Z,64.14
2023-01-15T10:42:33.486Z,64.03
2023-01-15T10:45:42.502Z,63.87
2023-01-15T10:48:47.319Z,64.11
2023-01-15T10:51:52.982Z,63.01
2023-01-15T10:55:03.289Z,63.15
2023-01-15T10:58:14.336Z,63.40
2023-01-15T11:01:20.877Z,61.98
2023-01-15T11:04:24.461Z,61.13
2023-01-15T11:07:35.529Z,61.07
2023-01-15T11:10:40.661Z,60.46
2023-01-15T11:14:11.429Z,62.28
2023-01-15T11:17:33.755Z,62.17
2023-01-15T11:20:42.380Z,61.62
2023-01-15T11:27:07.803Z,62.49
2023-01-15T11:30:26.664Z,61.73
2023-01-15T11:33:31.223Z,61.78
2023-01-15T11:36:33.850Z,60.64
2023-01-15T11:39:35.583Z,61.49
2023-01-15T11:42:56.096Z,61.85
2023-01-15T11:46:15.950Z,61.15
2023-01-15T11:49:40.404Z,61.51
2023-01-15T11:52:46.128Z,60.76
2023-01-15T11:55:53.123Z,61.98
2023-01-15T11:58:58.605Z,61.64
2023-01-15T12:02:04.501Z,60.83
2023-01-15T12:05:16.566Z,61.07
2023-01-15T12:08:31.903Z,60.16
2023-01-15T12:11:58.546Z,60.80
2023-01-15T12:15:12.468Z,60.18
2023-01-15T12:18:43.577Z,60.39
2023-01-15T12:22:03.261Z,61.65
2023-01-15T12:25:24.268Z,61.08
2023-01-15T12:28:33.069Z,60.32
2023-01-15T12:31:38.975Z,60.88
2023-01-15T12:34:47.329Z,60.53
2023-01-15T12:37:55.631Z,58.97
2023-01-15T12:41:03.915Z,59.57
2023-01-15T12:44:28.719Z,59.66
2023-01-15T12:47:35.876Z,59.75
2023-01-15T12:50:44.226Z,59.50
2023-01-15T12:53:51.238Z,59.05
2023-01-15T12:57:00.089Z,58.90
2023-01-15T13:00:07.734Z,59.61
2023-01-15T13:03:24.760Z,59.66
2023-01-15T13:06:27.893Z,59.54
2023-01-15T13:09:38.431Z,59.19
2023-01-15T13:12:40.231Z,58.26
2023-01-15T13:16:04.276Z,58.97
2023-01-15T13:19:32.361Z,58.69
2023-01-15T13:22:45.925Z,57.87
2023-01-15T13:26:14.091Z,58.54
2023-01-15T13:29:24.982Z,58.48
2023-01-15T13:32:29.183Z,58.63
2023-01-15T13:35:34.487Z,59.06
2023-01-15T13:38:40.783Z,58.85
2023-01-15T13:42:01.815Z,57.97
2023-01-15T13:45:28.309Z,57.41
2023-01-15T13:48:34.593Z,56.30
2023-01-15T13:51:39.810Z,58.51
2023-01-15T13:54:42.198Z,58.80
2023-01-15T14:01:22.906Z,57.71
2023-01-15T14:04:36.146Z,58.50
2023-01-15T14:07:41.994Z,57.87
2023-01-15T14:10:44.371Z,58.07
2023-01-15T14:14:31.217Z,57.54
2023-01-15T14:18:02.776Z,56.99
2023-01-15T14:21:31.250Z,58.06
2023-01-15T14:25:09.549Z,59.11
2023-01-15T14:28:40.904Z,58.66
2023-01-15T14:31:51.591Z,58.15
2023-01-15T14:34:57.880Z,57.66
2023-01-15T14:38:05.335Z,58.20
2023-01-15T14:41:08.485Z,58.69
2023-01-15T14:44:10.870Z,56.95
2023-01-15T14:47:26.890Z,58.76
2023-01-15T14:50:40.868Z,58.20
2023-01-15T14:53:45.741Z,57.76
2023-01-15T14:56:51.528Z,58.99
2023-01-15T14:59:58.880Z,57.75
2023-01-15T15:03:02.080Z,58.38
2023-01-15T15:06:07.599Z,58.24
2023-01-15T15:09:13.438Z,58.54
2023-01-15T15:12:25.318Z,58.99
2023-01-15T15:15:38.369Z,58.46
2023-01-15T15:18:45.224Z,58.02
2023-01-15T15:21:48.104Z,59.60
2023-01-15T15:24:55.169Z,58.19
2023-01-15T15:28:05.969Z,56.52
2023-01-15T15:31:10.055Z,57.14
2023-01-15T15:34:16.975Z,57.65
2023-01-15T15:37:20.325Z,56.42
2023-01-15T15:40:33.134Z,56.13
2023-01-15T15:44:02.189Z,56.94
2023-01-15T15:47:37.496Z,56.61
2023-01-15T15:50:41.226Z,55.81
2023-01-15T15:53:42.736Z,54.49
2023-01-15T15:56:52.871Z,55.46
2023-01-15T15:59:54.675Z,53.96
2023-01-15T16:03:01.728Z,55.25
2023-01-15T16:06:07.892Z,53.89
2023-01-15T16:09:09.835Z,54.28
2023-01-15T16:12:15.496Z,54.08
2023-01-15T16:15:19.305Z,54.26
2023-01-15T16:18:25.534Z,54.91
2023-01-15T16:21:33.440Z,54.58
2023-01-15T16:24:40.463Z,55.04
2023-01-15T16:27:43.439Z,55.84
2023-01-15T16:30:44.899Z,55.96
2023-01-15T16:33:49.307Z,55.84
2023-01-15T16:36:51.477Z,57.06
2023-01-15T16:39:54.802Z,56.41
2023-01-15T16:43:07.264Z,57.50
2023-01-15T16:46:19.974Z,57.45
2023-01-15T16:52:52.677Z,57.25
2023-01-15T16:55:56.283Z,56.76
2023-01-15T16:58:58.833Z,57.09
2023-01-15T17:02:07.409Z,56.63
2023-01-15T17:05:22.821Z,57.30
2023-01-15T17:08:35.064Z,56.64
2023-01-15T17:11:37.855Z,57.35
2023-01-15T17:14:39.392Z,57.53
2023-01-15T17:17:41.039Z,57.84
2023-01-15T17:20:44.617Z,58.04
2023-01-15T17:23:47.472Z,57.72
2023-01-15T17:26:50.423Z,58.82
2023-01-15T17:29:52.309Z,58.33
2023-01-15T17:32:53.888Z,59.21
2023-01-15T17:35:58.862Z,59.20
2023-01-15T17:39:02.073Z,58.91
2023-01-15T17:42:14.097Z,58.91
2023-01-15T17:45:19.226Z,59.40
2023-01-15T17:48:20.570Z,59.41
2023-01-15T17:51:22.891Z,59.41
2023-01-15T17:54:39.455Z,59.29
2023-01-15T17:58:00.288Z,59.31
2023-01-15T18:01:28.838Z,59.21
2023-01-15T18:04:51.764Z,59.74
2023-01-15T18:07:57.479Z,59.05
2023-01-15T18:11:02.542Z,59.56
2023-01-15T18:14:05.213Z,58.59
2023-01-15T18:17:06.859Z,58.05
2023-01-15T18:20:11.123Z,58.07
2023-01-15T18:23:12.408Z,59.05
2023-01-15T18:26:15.999Z,58.28
2023-01-15T18:32:39.875Z,58.52
2023-01-15T18:35:42.414Z,58.28
2023-01-15T18:38:44.106Z,58.49
2023-01-15T18:42:04.284Z,58.41
2023-01-15T18:45:24.871Z,58.65
2023-01-15T18:48:26.169Z,58.29
2023-01-15T18:51:29.177Z,58.02
2023-01-15T18:54:30.608Z,58.26
2023-01-15T18:57:34.589Z,58.13
2023-01-15T19:00:35.944Z,58.36
2023-01-15T19:03:38.624Z,57.64
2023-01-15T19:06:41.955Z,58.16
2023-01-15T19:09:43.707Z,58.02
2023-01-15T19:12:47.788Z,58.24
2023-01-15T19:16:18.968Z,57.85
2023-01-15T19:19:20.575Z,58.25
2023-01-15T19:22:41.302Z,57.04
2023-01-15T19:25:44.330Z,58.06
2023-01-15T19:28:46.365Z,58.36
2023-01-15T19:31:48.991Z,58.27
2023-01-15T19:34:54.708Z,58.29
2023-01-15T19:37:57.651Z,57.47
2023-01-15T19:41:20.553Z,59.05
2023-01-15T19:44:42.099Z,58.93
2023-01-15T19:48:01.271Z,58.43
2023-01-15T19:51:04.354Z,58.95
2023-01-15T19:54:06.465Z,58.52
2023-01-15T19:57:09.401Z,58.43
2023-01-15T20:00:15.098Z,57.09
2023-01-15T20:03:16.885Z,57.88
2023-01-15T20:06:19.770Z,58.15
2023-01-15T20:09:22.243Z,57.86
2023-01-15T20:12:43.044Z,58.06
2023-01-15T20:15:48.502Z,58.16
2023-01-15T20:18:50.517Z,57.19
2023-01-15T20:21:54.074Z,57.07
2023-01-15T20:24:56.444Z,56.85
2023-01-15T20:28:00.657Z,57.53
2023-01-15T20:31:03.269Z,57.65
2023-01-15T20:34:05.832Z,57.07
2023-01-15T20:37:08.690Z,57.09
2023-01-15T20:40:11.688Z,57.48
2023-01-15T20:43:31.302Z,57.56
2023-01-15T20:46:33.239Z,57.66
2023-01-15T20:49:34.788Z,57.61
2023-01-15T20:52:37.795Z,57.43
2023-01-15T20:55:54.682Z,57.36
2023-01-15T20:58:59.320Z,57.66
2023-01-15T21:02:01.344Z,57.19
2023-01-15T21:05:03.981Z,58.10
2023-01-15T21:08:06.632Z,57.59
2023-01-15T21:11:07.939Z,57.92
2023-01-15T21:14:10.454Z,57.47
2023-01-15T21:17:12.476Z,57.02
2023-01-15T21:20:17.327Z,57.10
2023-01-15T21:23:18.703Z,57.22
2023-01-15T21:26:21.293Z,57.67
2023-01-15T21:29:25.134Z,57.86
2023-01-15T21:32:27.622Z,57.90
2023-01-15T21:35:30.487Z,57.40
2023-01-15T21:38:32.096Z,57.26
2023-01-15T21:41:52.789Z,57.12
2023-01-15T21:44:55.370Z,58.42
2023-01-15T21:47:59.699Z,57.96
2023-01-15T21:51:05.842Z,58.13
2023-01-15T21:54:07.269Z,58.20
2023-01-15T21:57:10.754Z,57.91
2023-01-15T22:00:14.302Z,58.19
2023-01-15T22:03:18.526Z,59.10
2023-01-15T22:06:22.418Z,58.87
2023-01-15T22:09:24.084Z,59.47
2023-01-15T22:12:26.846Z,59.32
2023-01-15T22:15:29.678Z,59.24
2023-01-15T22:18:32.626Z,59.10
2023-01-15T22:21:36.487Z,59.76
2023-01-15T22:24:39.897Z,59.85
2023-01-15T22:27:44.055Z,60.51
2023-01-15T22:30:47.065Z,59.97
2023-01-15T22:33:50.688Z,60.12
2023-01-15T22:36:54.519Z,60.00
2023-01-15T22:39:56.135Z,59.47
2023-01-15T22:43:00.772Z,60.07
2023-01-15T22:46:11.079Z,60.23
2023-01-15T22:49:13.277Z,59.92
2023-01-15T22:52:16.700Z,59.61
2023-01-15T22:55:18.295Z,59.09
2023-01-15T23:01:44.371Z,60.19
2023-01-15T23:04:47.770Z,59.52
2023-01-15T23:07:51.047Z,60.31
2023-01-15T23:10:52.499Z,59.44
2023-01-15T23:13:54.155Z,60.80
2023-01-15T23:16:56.983Z,61.51
2023-01-15T23:19:59.381Z,61.02
2023-01-15T23:23:02.596Z,61.12
2023-01-15T23:26:05.289Z,61.61
2023-01-15T23:29:08.653Z,62.51
2023-01-15T23:32:10.353Z,61.80
2023-01-15T23:35:13.942Z,62.55
2023-01-15T23:38:16.835Z,62.75
2023-01-15T23:41:41.457Z,62.87
2023-01-15T23:44:58.816Z,62.49
2023-01-15T23:48:01.689Z,63.05
2023-01-15T23:51:04.530Z,62.79
2023-01-15T23:54:09.207Z,63.26
2023-01-15T23:57:10.883Z,63.52
